Texanna, Oklahoma
Current Conditions -  °F | °C
As of 7:53 AM on Thursday 23 Oct 2014 (Local Time) from KMKO Reporting Station
Overcast Overcast  
Wind Chill: 14°   Ceiling: 7500
Heat Index: 14°   Visibility: 10mi
Dew Point: 11°   Wind: 6mph
Humidity: 81%   Direction: 160°SSE
Pressure: 30.16"   Gusts: NA
Location:  35.4498°N, 95.4869°W
Report Text: KMKO 231253Z AUTO 16005KT 10SM OVC075 14/11 A3016 RMK AO2 SLP211 T01390106
Loading
Personal Weather Stations






























Interactive Weather Map
Tropical Storm Tracking
New forecast layout! Learn more

10-Day Weather Forecast

Advertisements
Track Severe Weather on mobile